createdAt,value
2023-01-10T00:00:25.675Z,11.32
2023-01-10T00:01:22.627Z,21.42
2023-01-10T00:02:19.830Z,14.55
2023-01-10T00:03:18.138Z,12.27
2023-01-10T00:04:15.110Z,14.27
2023-01-10T00:05:11.859Z,12.65
2023-01-10T00:06:08.541Z,11.00
2023-01-10T00:07:05.180Z,13.50
2023-01-10T00:08:04.917Z,16.17
2023-01-10T00:09:01.613Z,14.18
2023-01-10T00:09:58.446Z,14.85
2023-01-10T00:10:55.592Z,15.23
2023-01-10T00:12:10.893Z,10.40
2023-01-10T00:13:23.572Z,14.82
2023-01-10T00:14:20.359Z,13.80
2023-01-10T00:15:19.401Z,16.35
2023-01-10T00:16:16.259Z,14.52
2023-01-10T00:17:13.220Z,15.80
2023-01-10T00:18:10.156Z,17.80
2023-01-10T00:19:06.993Z,16.52
2023-01-10T00:20:03.886Z,12.75
2023-01-10T00:21:00.972Z,13.25
2023-01-10T00:21:59.127Z,15.60
2023-01-10T00:22:55.957Z,14.20
2023-01-10T00:23:54.083Z,13.77
2023-01-10T00:24:51.362Z,12.20
2023-01-10T00:25:48.174Z,13.63
2023-01-10T00:26:54.451Z,14.60
2023-01-10T00:28:20.143Z,12.75
2023-01-10T00:29:35.393Z,11.15
2023-01-10T00:30:33.973Z,14.77
2023-01-10T00:31:33.374Z,14.18
2023-01-10T00:32:30.069Z,15.50
2023-01-10T00:33:27.492Z,11.68
2023-01-10T00:34:24.187Z,12.48
2023-01-10T00:35:21.022Z,13.13
2023-01-10T00:36:17.825Z,12.95
2023-01-10T00:37:17.112Z,11.85
2023-01-10T00:38:15.017Z,14.13
2023-01-10T00:39:11.674Z,10.57
2023-01-10T00:40:09.210Z,12.60
2023-01-10T00:41:25.816Z,14.13
2023-01-10T00:42:41.199Z,12.52
2023-01-10T00:43:56.252Z,15.20
2023-01-10T00:44:53.022Z,12.75
2023-01-10T00:45:49.658Z,15.30
2023-01-10T00:46:46.359Z,12.60
2023-01-10T00:47:43.058Z,15.23
2023-01-10T00:48:42.739Z,17.58
2023-01-10T00:49:39.789Z,13.55
2023-01-10T00:50:36.418Z,15.30
2023-01-10T00:51:33.072Z,12.05
2023-01-10T00:52:29.753Z,12.25
2023-01-10T00:53:27.196Z,14.27
2023-01-10T00:54:24.035Z,14.50
2023-01-10T00:55:20.674Z,10.02
2023-01-10T00:56:17.301Z,12.73
2023-01-10T00:57:14.104Z,13.25
2023-01-10T00:58:11.964Z,10.27
2023-01-10T00:59:08.724Z,14.57
2023-01-10T01:00:12.139Z,15.25
2023-01-10T01:01:09.120Z,12.30
2023-01-10T01:02:05.895Z,12.10
2023-01-10T01:03:02.828Z,11.55
2023-01-10T01:03:59.916Z,14.32
2023-01-10T01:04:56.530Z,14.02
2023-01-10T01:05:53.167Z,11.65
2023-01-10T01:06:50.992Z,13.80
2023-01-10T01:07:49.276Z,12.27
2023-01-10T01:08:45.929Z,13.15
2023-01-10T01:10:00.994Z,13.00
2023-01-10T01:10:57.670Z,10.18
2023-01-10T01:11:56.171Z,12.48
2023-01-10T01:12:57.031Z,15.48
2023-01-10T01:13:53.717Z,18.85
2023-01-10T01:14:50.435Z,12.38
2023-01-10T01:15:48.969Z,13.45
2023-01-10T01:16:51.150Z,13.65
2023-01-10T01:17:48.463Z,13.30
2023-01-10T01:18:46.688Z,11.13
2023-01-10T01:19:43.432Z,11.55
2023-01-10T01:20:40.669Z,9.57
2023-01-10T01:21:37.401Z,10.77
2023-01-10T01:22:34.181Z,14.98
2023-01-10T01:23:30.931Z,10.98
2023-01-10T01:24:27.734Z,11.20
2023-01-10T01:25:26.978Z,17.33
2023-01-10T01:26:24.530Z,11.70
2023-01-10T01:27:21.456Z,10.90
2023-01-10T01:28:18.202Z,11.73
2023-01-10T01:29:15.753Z,11.93
2023-01-10T01:30:13.901Z,14.52
2023-01-10T01:31:16.195Z,14.40
2023-01-10T01:32:13.104Z,10.15
2023-01-10T01:33:10.017Z,13.25
2023-01-10T01:34:06.737Z,13.10
2023-01-10T01:35:03.643Z,13.77
2023-01-10T01:36:03.305Z,12.90
2023-01-10T01:37:00.105Z,12.38
2023-01-10T01:37:56.774Z,10.45
2023-01-10T01:38:53.600Z,16.70
2023-01-10T01:39:50.224Z,11.75
2023-01-10T01:40:46.939Z,10.65
2023-01-10T01:41:58.961Z,10.45
2023-01-10T01:42:56.029Z,10.02
2023-01-10T01:44:00.820Z,11.27
2023-01-10T01:45:09.868Z,11.13
2023-01-10T01:46:06.589Z,12.38
2023-01-10T01:47:07.668Z,9.85
2023-01-10T01:48:11.150Z,9.98
2023-01-10T01:49:12.610Z,12.00
2023-01-10T01:50:22.543Z,12.82
2023-01-10T01:51:25.326Z,9.55
2023-01-10T01:52:24.096Z,11.68
2023-01-10T01:53:39.576Z,11.60
2023-01-10T01:54:36.320Z,11.32
2023-01-10T01:55:34.385Z,11.38
2023-01-10T01:56:39.907Z,11.25
2023-01-10T01:57:36.520Z,14.55
2023-01-10T01:58:46.725Z,13.70
2023-01-10T01:59:44.512Z,12.05
2023-01-10T02:00:41.727Z,15.82
2023-01-10T02:01:41.874Z,13.60
2023-01-10T02:02:48.307Z,15.23
2023-01-10T02:03:56.814Z,11.35
2023-01-10T02:05:14.481Z,14.40
2023-01-10T02:06:11.122Z,12.60
2023-01-10T02:07:07.907Z,10.68
2023-01-10T02:08:04.646Z,11.00
2023-01-10T02:09:26.029Z,10.45
2023-01-10T02:10:52.319Z,9.55
2023-01-10T02:11:49.101Z,16.10
2023-01-10T02:12:46.460Z,11.98
2023-01-10T02:13:43.319Z,12.63
2023-01-10T02:14:39.992Z,15.02
2023-01-10T02:15:36.649Z,12.85
2023-01-10T02:16:33.346Z,12.30
2023-01-10T02:17:30.032Z,14.02
2023-01-10T02:18:26.733Z,13.88
2023-01-10T02:19:43.791Z,14.77
2023-01-10T02:20:49.380Z,13.93
2023-01-10T02:22:13.630Z,11.65
2023-01-10T02:23:21.869Z,14.80
2023-01-10T02:24:37.756Z,13.55
2023-01-10T02:25:52.776Z,12.15
2023-01-10T02:27:21.650Z,11.65
2023-01-10T02:28:50.971Z,12.75
2023-01-10T02:30:00.337Z,17.23
2023-01-10T02:31:23.779Z,11.27
2023-01-10T02:32:42.123Z,14.00
2023-01-10T02:33:49.725Z,14.43
2023-01-10T02:35:10.431Z,13.13
2023-01-10T02:36:19.983Z,19.38
2023-01-10T02:37:25.512Z,12.27
2023-01-10T02:38:27.811Z,16.15
2023-01-10T02:39:44.886Z,15.35
2023-01-10T02:40:54.249Z,14.43
2023-01-10T02:42:10.796Z,12.88
2023-01-10T02:43:11.767Z,19.40
2023-01-10T02:44:22.328Z,12.13
2023-01-10T02:45:44.962Z,14.55
2023-01-10T02:46:41.793Z,15.85
2023-01-10T02:47:39.217Z,11.90
2023-01-10T02:48:35.782Z,16.88
2023-01-10T02:49:41.976Z,13.57
2023-01-10T02:50:44.526Z,16.08
2023-01-10T02:51:41.141Z,13.02
2023-01-10T02:52:37.709Z,15.98
2023-01-10T02:53:37.646Z,13.55
2023-01-10T02:54:34.318Z,12.45
2023-01-10T02:56:03.651Z,14.57
2023-01-10T02:57:21.486Z,12.38
2023-01-10T02:58:39.253Z,12.38
2023-01-10T02:59:38.638Z,14.52
2023-01-10T03:00:35.273Z,19.05
2023-01-10T03:02:09.236Z,15.95
2023-01-10T03:03:27.530Z,17.60
2023-01-10T03:04:54.852Z,13.88
2023-01-10T03:05:53.902Z,19.52
2023-01-10T03:07:08.546Z,14.00
2023-01-10T03:08:14.172Z,14.05
2023-01-10T03:09:25.987Z,17.23
2023-01-10T03:10:33.846Z,16.60
2023-01-10T03:11:44.009Z,21.92
2023-01-10T03:13:20.155Z,13.68
2023-01-10T03:14:22.244Z,24.88
2023-01-10T03:15:20.732Z,14.50
2023-01-10T03:16:18.831Z,16.08
2023-01-10T03:17:15.525Z,13.85
2023-01-10T03:18:18.139Z,23.08
2023-01-10T03:19:17.466Z,16.38
2023-01-10T03:20:14.066Z,14.35
2023-01-10T03:21:10.761Z,22.83
2023-01-10T03:22:07.484Z,21.35
2023-01-10T03:23:04.961Z,13.38
2023-01-10T03:24:04.648Z,14.32
2023-01-10T03:25:01.505Z,20.02
2023-01-10T03:25:58.420Z,19.75
2023-01-10T03:27:01.838Z,17.40
2023-01-10T03:28:03.045Z,16.58
2023-01-10T03:29:05.681Z,17.90
2023-01-10T03:30:02.434Z,14.30
2023-01-10T03:31:33.183Z,17.55
2023-01-10T03:32:30.273Z,21.27
2023-01-10T03:33:28.704Z,18.40
2023-01-10T03:34:25.341Z,20.50
2023-01-10T03:35:22.570Z,20.05
2023-01-10T03:36:34.325Z,19.80
2023-01-10T03:37:39.826Z,13.52
2023-01-10T03:39:19.292Z,17.63
2023-01-10T03:40:28.420Z,16.92
2023-01-10T03:41:33.039Z,14.35
2023-01-10T03:42:55.590Z,19.15
2023-01-10T03:44:18.996Z,21.35
2023-01-10T03:45:18.531Z,15.65
2023-01-10T03:46:27.874Z,16.88
2023-01-10T03:47:33.723Z,16.20
2023-01-10T03:48:32.517Z,14.75
2023-01-10T03:49:29.234Z,12.52
2023-01-10T03:50:25.948Z,15.48
2023-01-10T03:51:22.645Z,14.07
2023-01-10T03:52:19.335Z,24.92
2023-01-10T03:53:15.999Z,16.45
2023-01-10T03:54:12.610Z,19.77
2023-01-10T03:55:11.430Z,15.88
2023-01-10T03:56:08.055Z,23.40
2023-01-10T03:57:05.790Z,22.75
2023-01-10T03:58:05.043Z,13.75
2023-01-10T03:59:01.691Z,18.60
2023-01-10T03:59:58.927Z,15.05
2023-01-10T04:00:55.754Z,13.77
2023-01-10T04:01:52.675Z,16.05
2023-01-10T04:02:49.460Z,16.75
2023-01-10T04:03:46.319Z,14.40
2023-01-10T04:04:43.027Z,17.63
2023-01-10T04:05:39.735Z,21.17
2023-01-10T04:06:36.495Z,17.50
2023-01-10T04:07:33.219Z,20.45
2023-01-10T04:08:29.834Z,15.38
2023-01-10T04:09:26.470Z,10.95
2023-01-10T04:10:25.308Z,16.40
2023-01-10T04:11:22.082Z,17.02
2023-01-10T04:12:18.744Z,19.13
2023-01-10T04:13:15.326Z,19.73
2023-01-10T04:14:11.998Z,19.75
2023-01-10T04:15:08.977Z,15.52
2023-01-10T04:16:11.926Z,20.08
2023-01-10T04:17:08.638Z,18.50
2023-01-10T04:18:05.228Z,14.00
2023-01-10T04:19:01.895Z,17.50
2023-01-10T04:19:58.575Z,20.55
2023-01-10T04:20:55.265Z,22.33
2023-01-10T04:21:51.878Z,18.95
2023-01-10T04:22:49.845Z,21.92
2023-01-10T04:23:46.558Z,16.38
2023-01-10T04:24:44.313Z,19.33
2023-01-10T04:25:41.067Z,17.45
2023-01-10T04:26:37.685Z,19.23
2023-01-10T04:27:34.323Z,15.75
2023-01-10T04:28:31.028Z,14.15
2023-01-10T04:29:27.641Z,20.67
2023-01-10T04:30:24.263Z,17.20
2023-01-10T04:31:22.447Z,18.55
2023-01-10T04:32:19.115Z,19.67
2023-01-10T04:33:15.714Z,19.05
2023-01-10T04:34:12.529Z,19.27
2023-01-10T04:35:09.407Z,17.67
2023-01-10T04:36:06.602Z,18.02
2023-01-10T04:37:03.236Z,19.00
2023-01-10T04:38:00.813Z,22.80
2023-01-10T04:38:57.474Z,17.92
2023-01-10T04:39:54.135Z,18.00
2023-01-10T04:40:56.994Z,17.00
2023-01-10T04:41:53.659Z,17.30
2023-01-10T04:42:50.277Z,20.35
2023-01-10T04:43:46.964Z,23.23
2023-01-10T04:44:43.695Z,21.92
2023-01-10T04:45:40.377Z,21.48
2023-01-10T04:46:37.048Z,20.48
2023-01-10T04:47:33.726Z,14.95
2023-01-10T04:48:30.380Z,19.75
2023-01-10T04:49:27.168Z,21.98
2023-01-10T04:50:23.923Z,22.77
2023-01-10T04:51:20.599Z,20.38
2023-01-10T04:52:17.269Z,19.40
2023-01-10T04:53:13.889Z,20.17
2023-01-10T04:54:10.616Z,20.98
2023-01-10T04:55:07.444Z,19.45
2023-01-10T04:56:05.293Z,21.35
2023-01-10T04:57:01.913Z,18.25
2023-01-10T04:57:58.639Z,26.38
2023-01-10T04:58:56.455Z,15.60
2023-01-10T04:59:53.051Z,23.42
2023-01-10T05:00:49.997Z,22.73
2023-01-10T05:01:46.879Z,20.10
2023-01-10T05:02:44.559Z,18.27
2023-01-10T05:03:41.416Z,26.73
2023-01-10T05:04:38.058Z,16.13
2023-01-10T05:05:34.805Z,22.23
2023-01-10T05:06:34.312Z,21.58
2023-01-10T05:07:30.941Z,23.20
2023-01-10T05:08:27.756Z,20.27
2023-01-10T05:09:24.382Z,21.40
2023-01-10T05:10:21.390Z,17.58
2023-01-10T05:11:18.036Z,20.20
2023-01-10T05:12:15.339Z,22.25
2023-01-10T05:13:12.015Z,25.08
2023-01-10T05:14:09.140Z,18.02
2023-01-10T05:15:06.625Z,15.25
2023-01-10T05:16:03.583Z,21.73
2023-01-10T05:17:00.235Z,21.40
2023-01-10T05:18:00.249Z,21.73
2023-01-10T05:18:56.874Z,19.73
2023-01-10T05:19:53.463Z,26.48
2023-01-10T05:20:50.091Z,15.75
2023-01-10T05:21:46.767Z,20.00
2023-01-10T05:22:43.363Z,20.77
2023-01-10T05:23:40.122Z,23.23
2023-01-10T05:24:36.734Z,20.10
2023-01-10T05:25:33.441Z,19.58
2023-01-10T05:26:30.188Z,18.95
2023-01-10T05:27:26.857Z,22.38
2023-01-10T05:28:23.570Z,22.05
2023-01-10T05:29:20.233Z,24.95
2023-01-10T05:30:17.200Z,21.10
2023-01-10T05:31:15.113Z,22.15
2023-01-10T05:32:11.821Z,19.52
2023-01-10T05:33:08.491Z,21.58
2023-01-10T05:34:05.215Z,24.63
2023-01-10T05:35:01.919Z,22.60
2023-01-10T05:36:01.471Z,17.67
2023-01-10T05:36:58.152Z,23.55
2023-01-10T05:37:55.008Z,19.70
2023-01-10T05:38:51.690Z,27.55
2023-01-10T05:39:48.285Z,25.67
2023-01-10T05:40:44.865Z,23.20
2023-01-10T05:41:41.530Z,25.27
2023-01-10T05:42:38.238Z,23.08
2023-01-10T05:43:34.918Z,18.83
2023-01-10T05:44:32.364Z,23.75
2023-01-10T05:45:29.052Z,22.48
2023-01-10T05:46:25.787Z,24.50
2023-01-10T05:47:22.612Z,23.10
2023-01-10T05:48:19.278Z,16.50
2023-01-10T05:49:15.903Z,25.05
2023-01-10T05:50:12.579Z,26.80
2023-01-10T05:51:09.334Z,23.60
2023-01-10T05:52:06.042Z,28.27
2023-01-10T05:53:05.768Z,25.33
2023-01-10T05:54:02.466Z,27.58
2023-01-10T05:54:59.101Z,23.52
2023-01-10T05:55:59.624Z,19.88
2023-01-10T05:56:56.442Z,23.33
2023-01-10T05:57:53.217Z,24.92
2023-01-10T05:58:57.012Z,22.63
2023-01-10T06:00:01.585Z,23.17
2023-01-10T06:00:58.808Z,26.40
2023-01-10T06:01:55.645Z,25.42
2023-01-10T06:02:55.283Z,29.50
2023-01-10T06:03:52.256Z,28.85
2023-01-10T06:04:49.217Z,25.83
2023-01-10T06:05:47.227Z,20.95
2023-01-10T06:06:45.238Z,29.67
2023-01-10T06:07:41.923Z,30.17
2023-01-10T06:08:38.598Z,22.98
2023-01-10T06:09:35.296Z,20.45
2023-01-10T06:10:31.918Z,21.88
2023-01-10T06:11:31.447Z,22.33
2023-01-10T06:12:28.176Z,22.60
2023-01-10T06:13:24.821Z,22.98
2023-01-10T06:14:21.481Z,23.30
2023-01-10T06:15:18.276Z,25.17
2023-01-10T06:16:14.946Z,20.60
2023-01-10T06:17:11.646Z,27.85
2023-01-10T06:18:11.794Z,29.83
2023-01-10T06:19:09.425Z,25.02
2023-01-10T06:20:06.390Z,25.95
2023-01-10T06:21:03.110Z,23.70
2023-01-10T06:22:00.104Z,25.83
2023-01-10T06:22:56.761Z,22.95
2023-01-10T06:23:53.441Z,23.13
2023-01-10T06:24:50.056Z,26.25
2023-01-10T06:25:46.739Z,29.55
2023-01-10T06:26:43.401Z,25.40
2023-01-10T06:27:43.103Z,24.08
2023-01-10T06:28:41.117Z,24.75
2023-01-10T06:29:37.812Z,24.33
2023-01-10T06:30:35.408Z,19.85
2023-01-10T06:31:32.173Z,20.33
2023-01-10T06:32:28.875Z,23.40
2023-01-10T06:33:26.499Z,31.30
2023-01-10T06:34:23.120Z,22.35
2023-01-10T06:35:22.479Z,26.45
2023-01-10T06:36:19.105Z,28.95
2023-01-10T06:37:16.082Z,28.58
2023-01-10T06:38:13.143Z,21.05
2023-01-10T06:39:10.049Z,22.83
2023-01-10T06:40:07.476Z,16.38
2023-01-10T06:41:13.147Z,32.92
2023-01-10T06:42:09.868Z,24.27
2023-01-10T06:43:06.458Z,23.80
2023-01-10T06:44:03.089Z,21.40
2023-01-10T06:45:00.105Z,21.65
2023-01-10T06:45:56.875Z,25.58
2023-01-10T06:46:53.636Z,32.97
2023-01-10T06:47:50.513Z,22.98
2023-01-10T06:48:47.250Z,26.98
2023-01-10T06:49:43.926Z,20.52
2023-01-10T06:50:40.671Z,24.40
2023-01-10T06:51:37.332Z,21.75
2023-01-10T06:52:34.195Z,29.52
2023-01-10T06:53:30.818Z,19.58
2023-01-10T06:54:27.430Z,25.30
2023-01-10T06:55:24.352Z,24.35
2023-01-10T06:56:21.084Z,19.08
2023-01-10T06:57:17.870Z,22.52
2023-01-10T06:58:18.514Z,24.95
2023-01-10T06:59:15.273Z,22.15
2023-01-10T07:00:12.225Z,21.38
2023-01-10T07:01:17.057Z,21.08
2023-01-10T07:02:13.812Z,26.58
2023-01-10T07:03:10.619Z,24.80
2023-01-10T07:04:07.329Z,24.85
2023-01-10T07:05:04.212Z,24.60
2023-01-10T07:06:02.367Z,19.77
2023-01-10T07:06:59.130Z,26.40
2023-01-10T07:07:56.740Z,26.10
2023-01-10T07:08:57.732Z,23.05
2023-01-10T07:09:54.405Z,24.00
2023-01-10T07:10:51.089Z,24.75
2023-01-10T07:11:47.941Z,23.27
2023-01-10T07:12:44.749Z,24.25
2023-01-10T07:13:41.543Z,26.65
2023-01-10T07:14:38.265Z,24.45
2023-01-10T07:15:34.944Z,22.25
2023-01-10T07:16:31.643Z,21.85
2023-01-10T07:17:29.516Z,19.38
2023-01-10T07:18:26.198Z,23.30
2023-01-10T07:19:22.913Z,24.83
2023-01-10T07:20:19.775Z,18.00
2023-01-10T07:21:18.130Z,19.77
2023-01-10T07:22:14.933Z,20.70
2023-01-10T07:23:11.613Z,25.08
2023-01-10T07:24:08.771Z,25.13
2023-01-10T07:25:06.044Z,23.85
2023-01-10T07:26:06.595Z,30.73
2023-01-10T07:27:03.427Z,22.25
2023-01-10T07:28:00.311Z,24.73
2023-01-10T07:28:57.253Z,19.30
2023-01-10T07:29:54.100Z,24.67
2023-01-10T07:30:50.733Z,25.33
2023-01-10T07:31:47.501Z,28.67
2023-01-10T07:32:44.294Z,21.15
2023-01-10T07:33:40.966Z,24.70
2023-01-10T07:34:37.659Z,29.40
2023-01-10T07:35:34.437Z,23.33
2023-01-10T07:36:31.129Z,25.05
2023-01-10T07:37:28.006Z,21.98
2023-01-10T07:38:25.028Z,28.92
2023-01-10T07:39:21.692Z,23.08
2023-01-10T07:40:18.441Z,22.85
2023-01-10T07:41:15.328Z,26.70
2023-01-10T07:42:12.676Z,17.20
2023-01-10T07:43:10.006Z,23.45
2023-01-10T07:44:06.901Z,23.08
2023-01-10T07:45:03.925Z,31.42
2023-01-10T07:46:01.268Z,21.30
2023-01-10T07:46:57.985Z,26.02
2023-01-10T07:48:01.618Z,25.50
2023-01-10T07:48:58.402Z,23.85
2023-01-10T07:49:55.335Z,20.95
2023-01-10T07:50:55.964Z,24.98
2023-01-10T07:51:52.617Z,29.45
2023-01-10T07:52:49.345Z,27.00
2023-01-10T07:53:46.164Z,29.50
2023-01-10T07:54:42.890Z,28.92
2023-01-10T07:55:39.912Z,19.48
2023-01-10T07:56:36.786Z,30.17
2023-01-10T07:57:33.532Z,22.33
2023-01-10T07:58:30.246Z,20.30
2023-01-10T07:59:26.948Z,19.35
2023-01-10T08:00:23.783Z,22.85
2023-01-10T08:01:21.411Z,16.75
2023-01-10T08:02:18.250Z,27.20
2023-01-10T08:03:15.254Z,28.02
2023-01-10T08:04:14.888Z,26.10
2023-01-10T08:05:11.687Z,23.63
2023-01-10T08:06:11.142Z,27.42
2023-01-10T08:07:07.863Z,23.73
2023-01-10T08:08:11.748Z,26.90
2023-01-10T08:09:08.502Z,19.52
2023-01-10T08:10:06.218Z,25.63
2023-01-10T08:11:03.051Z,23.23
2023-01-10T08:11:59.743Z,26.30
2023-01-10T08:13:01.494Z,23.20
2023-01-10T08:14:00.723Z,25.13
2023-01-10T08:14:57.478Z,22.42
2023-01-10T08:15:54.256Z,27.35
2023-01-10T08:16:51.044Z,19.52
2023-01-10T08:17:48.194Z,27.17
2023-01-10T08:18:44.983Z,26.08
2023-01-10T08:19:41.686Z,21.73
2023-01-10T08:20:38.862Z,26.77
2023-01-10T08:21:35.682Z,26.63
2023-01-10T08:22:32.447Z,22.25
2023-01-10T08:23:29.583Z,24.77
2023-01-10T08:24:26.480Z,21.92
2023-01-10T08:25:23.268Z,22.45
2023-01-10T08:26:20.044Z,26.38
2023-01-10T08:27:16.788Z,23.83
2023-01-10T08:28:14.039Z,20.50
2023-01-10T08:29:10.979Z,20.52
2023-01-10T08:30:08.916Z,19.17
2023-01-10T08:31:07.638Z,22.42
2023-01-10T08:32:06.713Z,22.58
2023-01-10T08:33:10.791Z,27.27
2023-01-10T08:34:07.567Z,19.60
2023-01-10T08:35:07.046Z,20.08
2023-01-10T08:36:03.976Z,24.52
2023-01-10T08:37:02.824Z,20.80
2023-01-10T08:38:00.298Z,19.48
2023-01-10T08:38:57.223Z,20.98
2023-01-10T08:39:54.035Z,20.40
2023-01-10T08:40:50.864Z,15.55
2023-01-10T08:41:47.727Z,22.95
2023-01-10T08:42:44.423Z,20.38
2023-01-10T08:43:44.610Z,23.40
2023-01-10T08:44:41.878Z,22.17
2023-01-10T08:45:38.690Z,20.90
2023-01-10T08:46:35.391Z,20.88
2023-01-10T08:47:32.057Z,17.60
2023-01-10T08:48:28.759Z,20.58
2023-01-10T08:49:25.372Z,24.38
2023-01-10T08:50:22.574Z,23.20
2023-01-10T08:51:19.397Z,16.60
2023-01-10T08:52:16.345Z,16.17
2023-01-10T08:53:13.852Z,24.42
2023-01-10T08:54:10.730Z,19.45
2023-01-10T08:55:07.734Z,17.20
2023-01-10T08:56:05.678Z,18.45
2023-01-10T08:57:02.473Z,20.52
2023-01-10T08:58:00.468Z,22.52
2023-01-10T08:59:00.027Z,17.60
2023-01-10T08:59:56.742Z,22.00
2023-01-10T09:00:53.672Z,16.48
2023-01-10T09:01:50.473Z,23.23
2023-01-10T09:02:47.371Z,16.50
2023-01-10T09:03:44.913Z,23.25
2023-01-10T09:04:41.603Z,19.20
2023-01-10T09:05:38.356Z,17.85
2023-01-10T09:06:37.452Z,25.23
2023-01-10T09:07:34.154Z,22.25
2023-01-10T09:08:31.021Z,16.73
2023-01-10T09:09:28.780Z,20.60
2023-01-10T09:10:26.817Z,16.75
2023-01-10T09:11:23.842Z,19.92
2023-01-10T09:12:39.708Z,16.05
2023-01-10T09:13:36.590Z,16.00
2023-01-10T09:14:33.803Z,16.50
2023-01-10T09:15:32.857Z,18.50
2023-01-10T09:16:29.805Z,21.00
2023-01-10T09:17:42.433Z,22.60
2023-01-10T09:18:45.604Z,18.90
2023-01-10T09:19:42.299Z,18.70
2023-01-10T09:20:41.571Z,18.35
2023-01-10T09:21:42.162Z,17.50
2023-01-10T09:22:39.555Z,17.40
2023-01-10T09:23:37.271Z,24.27
2023-01-10T09:24:38.455Z,20.40
2023-01-10T09:25:41.113Z,16.48
2023-01-10T09:26:38.118Z,18.67
2023-01-10T09:27:34.898Z,15.80
2023-01-10T09:28:31.711Z,21.45
2023-01-10T09:29:28.519Z,19.23
2023-01-10T09:30:29.758Z,21.02
2023-01-10T09:31:26.573Z,22.70
2023-01-10T09:32:23.339Z,19.10
2023-01-10T09:33:20.299Z,14.80
2023-01-10T09:34:17.346Z,16.83
2023-01-10T09:35:18.271Z,15.50
2023-01-10T09:36:22.377Z,16.95
2023-01-10T09:37:20.196Z,18.20
2023-01-10T09:38:20.329Z,19.20
2023-01-10T09:39:17.219Z,22.20
2023-01-10T09:40:16.395Z,15.00
2023-01-10T09:41:51.499Z,17.15
2023-01-10T09:43:12.161Z,17.63
2023-01-10T09:44:24.379Z,14.25
2023-01-10T09:45:31.401Z,15.85
2023-01-10T09:46:55.706Z,18.30
2023-01-10T09:48:02.855Z,14.73
2023-01-10T09:49:13.507Z,20.55
2023-01-10T09:50:42.137Z,15.98
2023-01-10T09:51:44.296Z,15.07
2023-01-10T09:52:46.641Z,14.97
2023-01-10T09:53:43.666Z,16.17
2023-01-10T09:54:42.109Z,14.23
2023-01-10T09:55:38.878Z,14.43
2023-01-10T09:56:35.875Z,22.50
2023-01-10T09:57:33.098Z,14.67
2023-01-10T09:58:31.898Z,14.70
2023-01-10T09:59:36.957Z,14.97
2023-01-10T10:01:12.572Z,14.40
2023-01-10T10:02:32.911Z,16.98
2023-01-10T10:03:42.933Z,17.92
2023-01-10T10:04:42.644Z,18.67
2023-01-10T10:05:39.360Z,18.80
2023-01-10T10:06:36.266Z,15.40
2023-01-10T10:07:33.393Z,14.90
2023-01-10T10:08:30.059Z,19.67
2023-01-10T10:09:30.498Z,15.35
2023-01-10T10:10:34.583Z,18.33
2023-01-10T10:12:03.468Z,15.60
2023-01-10T10:13:26.837Z,12.38
2023-01-10T10:14:34.178Z,16.33
2023-01-10T10:15:37.837Z,15.15
2023-01-10T10:16:39.807Z,12.68
2023-01-10T10:18:00.482Z,18.60
2023-01-10T10:19:32.218Z,18.47
2023-01-10T10:20:36.547Z,18.50
2023-01-10T10:21:41.746Z,14.23
2023-01-10T10:22:59.853Z,15.68
2023-01-10T10:24:14.349Z,18.17
2023-01-10T10:25:44.563Z,17.53
2023-01-10T10:26:57.434Z,16.13
2023-01-10T10:28:18.743Z,19.70
2023-01-10T10:29:55.403Z,20.73
2023-01-10T10:31:29.717Z,15.48
2023-01-10T10:32:38.427Z,15.93
2023-01-10T10:34:12.588Z,16.87
2023-01-10T10:35:30.857Z,18.50
2023-01-10T10:36:42.649Z,13.47
2023-01-10T10:37:41.680Z,17.50
2023-01-10T10:38:40.013Z,15.80
2023-01-10T10:39:40.158Z,12.93
2023-01-10T10:40:39.713Z,14.23
2023-01-10T10:41:38.821Z,14.33
2023-01-10T10:42:37.895Z,19.03
2023-01-10T10:43:36.195Z,16.57
2023-01-10T10:44:37.678Z,17.47
2023-01-10T10:45:47.221Z,15.03
2023-01-10T10:46:54.137Z,18.47
2023-01-10T10:47:58.675Z,15.13
2023-01-10T10:49:26.374Z,16.53
2023-01-10T10:50:34.276Z,13.27
2023-01-10T10:51:37.172Z,14.82
2023-01-10T10:52:35.291Z,18.03
2023-01-10T10:53:35.557Z,11.87
2023-01-10T10:54:35.036Z,17.97
2023-01-10T10:55:33.865Z,19.50
2023-01-10T10:56:31.225Z,16.25
2023-01-10T10:57:28.836Z,17.60
2023-01-10T10:58:26.121Z,18.52
2023-01-10T10:59:23.286Z,17.00
2023-01-10T11:00:20.587Z,20.13
2023-01-10T11:01:17.979Z,17.43
2023-01-10T11:02:29.759Z,15.33
2023-01-10T11:03:45.230Z,16.43
2023-01-10T11:04:41.974Z,9.93
2023-01-10T11:05:43.195Z,18.38
2023-01-10T11:06:42.564Z,15.37
2023-01-10T11:07:40.917Z,16.63
2023-01-10T11:08:47.102Z,12.17
2023-01-10T11:10:09.210Z,12.73
2023-01-10T11:11:07.810Z,12.17
2023-01-10T11:12:05.017Z,14.70
2023-01-10T11:13:22.061Z,11.53
2023-01-10T11:14:46.560Z,12.70
2023-01-10T11:15:45.604Z,15.90
2023-01-10T11:16:45.490Z,16.60
2023-01-10T11:17:42.697Z,13.53
2023-01-10T11:18:41.687Z,17.43
2023-01-10T11:19:38.355Z,14.27
2023-01-10T11:20:35.598Z,15.87
2023-01-10T11:21:32.301Z,16.93
2023-01-10T11:22:30.654Z,14.37
2023-01-10T11:23:54.759Z,16.50
2023-01-10T11:24:56.955Z,17.93
2023-01-10T11:25:53.719Z,12.83
2023-01-10T11:26:50.459Z,16.37
2023-01-10T11:27:49.515Z,19.03
2023-01-10T11:28:46.290Z,15.97
2023-01-10T11:29:44.821Z,14.30
2023-01-10T11:30:42.422Z,15.93
2023-01-10T11:31:42.354Z,15.57
2023-01-10T11:32:50.128Z,12.77
2023-01-10T11:33:48.409Z,14.00
2023-01-10T11:35:11.159Z,16.10
2023-01-10T11:36:11.126Z,17.20
2023-01-10T11:37:32.753Z,13.37
2023-01-10T11:38:32.557Z,14.00
2023-01-10T11:39:33.302Z,16.70
2023-01-10T11:40:34.529Z,13.90
2023-01-10T11:41:34.750Z,16.77
2023-01-10T11:42:33.118Z,10.83
2023-01-10T11:43:33.192Z,11.00
2023-01-10T11:44:30.288Z,16.70
2023-01-10T11:45:32.124Z,14.00
2023-01-10T11:46:29.292Z,16.17
2023-01-10T11:47:26.507Z,12.63
2023-01-10T11:48:48.206Z,17.70
2023-01-10T11:49:44.197Z,13.93
2023-01-10T11:50:42.669Z,12.27
2023-01-10T11:52:01.440Z,15.47
2023-01-10T11:52:58.659Z,17.07
2023-01-10T11:53:58.786Z,13.20
2023-01-10T11:54:58.635Z,14.77
2023-01-10T11:55:57.025Z,13.00
2023-01-10T11:56:57.565Z,12.03
2023-01-10T11:58:22.359Z,15.03
2023-01-10T11:59:21.955Z,12.37
2023-01-10T12:00:19.631Z,13.97
2023-01-10T12:01:27.002Z,17.57
2023-01-10T12:02:31.907Z,11.50
2023-01-10T12:03:37.304Z,10.87
2023-01-10T12:04:45.283Z,10.43
2023-01-10T12:05:44.644Z,10.90
2023-01-10T12:06:51.987Z,15.32
2023-01-10T12:08:06.678Z,11.47
2023-01-10T12:09:04.451Z,12.63
2023-01-10T12:10:03.198Z,12.47
2023-01-10T12:11:03.513Z,11.97
2023-01-10T12:12:23.087Z,11.60
2023-01-10T12:13:26.892Z,17.70
2023-01-10T12:14:25.021Z,14.93
2023-01-10T12:15:31.195Z,11.77
2023-01-10T12:16:33.409Z,13.43
2023-01-10T12:17:33.323Z,14.27
2023-01-10T12:18:30.614Z,9.40
2023-01-10T12:19:28.429Z,11.32
2023-01-10T12:20:26.803Z,11.83
2023-01-10T12:21:31.261Z,15.73
2023-01-10T12:22:33.069Z,13.03
2023-01-10T12:23:40.481Z,14.87
2023-01-10T12:24:39.730Z,11.97
2023-01-10T12:25:39.417Z,14.37
2023-01-10T12:26:39.014Z,12.15
2023-01-10T12:27:36.657Z,10.60
2023-01-10T12:28:33.835Z,12.93
2023-01-10T12:29:35.964Z,17.67
2023-01-10T12:30:44.064Z,15.10
2023-01-10T12:31:41.727Z,12.03
2023-01-10T12:32:44.878Z,14.38
2023-01-10T12:33:48.291Z,14.68
2023-01-10T12:35:15.681Z,12.47
2023-01-10T12:36:38.688Z,14.18
2023-01-10T12:38:07.123Z,15.25
2023-01-10T12:39:22.128Z,15.30
2023-01-10T12:40:22.098Z,17.88
2023-01-10T12:42:06.146Z,11.90
2023-01-10T12:43:30.914Z,12.57
2023-01-10T12:44:40.918Z,16.15
2023-01-10T12:45:49.110Z,13.77
2023-01-10T12:47:06.579Z,12.25
2023-01-10T12:48:25.275Z,14.13
2023-01-10T12:49:27.101Z,13.50
2023-01-10T12:50:34.797Z,13.57
2023-01-10T12:51:32.493Z,11.65
2023-01-10T12:52:59.452Z,11.32
2023-01-10T12:54:02.261Z,11.90
2023-01-10T12:55:00.868Z,12.18
2023-01-10T12:56:05.463Z,12.68
2023-01-10T12:57:08.254Z,17.08
2023-01-10T12:58:09.732Z,15.60
2023-01-10T12:59:36.965Z,13.00
2023-01-10T13:00:47.303Z,15.80
2023-01-10T13:01:45.236Z,12.88
2023-01-10T13:02:44.272Z,12.75
2023-01-10T13:03:41.309Z,14.77
2023-01-10T13:04:38.332Z,10.43
2023-01-10T13:05:35.125Z,14.30
2023-01-10T13:06:36.616Z,15.85
2023-01-10T13:07:34.634Z,12.23